sensor_id;sensor_type;location;lat;lon;timestamp;P1;durP1;ratioP1;P2;durP2;ratioP2
22284;SDS011;11311;52.192;20.900;2023-04-03T00:02:13;3.03;;;2.72;;
22284;SDS011;11311;52.192;20.900;2023-04-03T00:04:42;3.25;;;2.50;;
22284;SDS011;11311;52.192;20.900;2023-04-03T00:07:11;4.78;;;3.08;;
22284;SDS011;11311;52.192;20.900;2023-04-03T00:09:41;5.28;;;3.13;;
22284;SDS011;11311;52.192;20.900;2023-04-03T00:12:10;3.60;;;2.85;;
22284;SDS011;11311;52.192;20.900;2023-04-03T00:14:39;6.78;;;2.78;;
22284;SDS011;11311;52.192;20.900;2023-04-03T00:17:08;4.47;;;2.90;;
22284;SDS011;11311;52.192;20.900;2023-04-03T00:19:38;5.75;;;3.05;;
22284;SDS011;11311;52.192;20.900;2023-04-03T00:22:07;6.13;;;3.42;;
22284;SDS011;11311;52.192;20.900;2023-04-03T00:24:36;7.47;;;2.63;;
22284;SDS011;11311;52.192;20.900;2023-04-03T00:27:05;3.13;;;2.83;;
22284;SDS011;11311;52.192;20.900;2023-04-03T00:29:33;4.55;;;3.05;;
22284;SDS011;11311;52.192;20.900;2023-04-03T00:32:03;4.20;;;2.92;;
22284;SDS011;11311;52.192;20.900;2023-04-03T00:34:31;3.30;;;2.40;;
22284;SDS011;11311;52.192;20.900;2023-04-03T00:37:02;5.93;;;2.85;;
22284;SDS011;11311;52.192;20.900;2023-04-03T00:39:31;3.15;;;2.67;;
22284;SDS011;11311;52.192;20.900;2023-04-03T00:41:59;3.60;;;2.58;;
22284;SDS011;11311;52.192;20.900;2023-04-03T00:47:37;6.75;;;2.70;;
22284;SDS011;11311;52.192;20.900;2023-04-03T00:50:07;4.60;;;2.10;;
22284;SDS011;11311;52.192;20.900;2023-04-03T00:52:37;3.72;;;2.35;;
22284;SDS011;11311;52.192;20.900;2023-04-03T00:55:07;4.05;;;2.67;;
22284;SDS011;11311;52.192;20.900;2023-04-03T00:57:37;7.85;;;3.33;;
22284;SDS011;11311;52.192;20.900;2023-04-03T01:00:07;3.17;;;2.25;;
22284;SDS011;11311;52.192;20.900;2023-04-03T01:02:38;4.43;;;2.30;;
22284;SDS011;11311;52.192;20.900;2023-04-03T01:05:10;5.85;;;2.80;;
22284;SDS011;11311;52.192;20.900;2023-04-03T01:07:40;9.10;;;4.13;;
22284;SDS011;11311;52.192;20.900;2023-04-03T01:10:10;10.52;;;2.95;;
22284;SDS011;11311;52.192;20.900;2023-04-03T01:12:42;7.18;;;3.10;;
22284;SDS011;11311;52.192;20.900;2023-04-03T01:15:15;6.65;;;2.95;;
22284;SDS011;11311;52.192;20.900;2023-04-03T01:17:46;4.07;;;3.40;;
22284;SDS011;11311;52.192;20.900;2023-04-03T01:20:28;3.65;;;2.75;;
22284;SDS011;11311;52.192;20.900;2023-04-03T01:23:23;5.00;;;2.60;;
22284;SDS011;11311;52.192;20.900;2023-04-03T01:25:55;9.38;;;2.90;;
22284;SDS011;11311;52.192;20.900;2023-04-03T01:28:26;3.58;;;2.42;;
22284;SDS011;11311;52.192;20.900;2023-04-03T01:30:59;4.28;;;2.78;;
22284;SDS011;11311;52.192;20.900;2023-04-03T01:33:35;3.75;;;2.55;;
22284;SDS011;11311;52.192;20.900;2023-04-03T01:36:04;4.32;;;2.33;;
22284;SDS011;11311;52.192;20.900;2023-04-03T01:38:35;3.95;;;2.33;;
22284;SDS011;11311;52.192;20.900;2023-04-03T01:41:03;6.68;;;3.38;;
22284;SDS011;11311;52.192;20.900;2023-04-03T01:43:32;4.60;;;2.83;;
22284;SDS011;11311;52.192;20.900;2023-04-03T01:46:01;8.93;;;2.55;;
22284;SDS011;11311;52.192;20.900;2023-04-03T01:48:31;4.45;;;2.95;;
22284;SDS011;11311;52.192;20.900;2023-04-03T01:51:01;5.25;;;3.00;;
22284;SDS011;11311;52.192;20.900;2023-04-03T01:53:30;5.40;;;2.90;;
22284;SDS011;11311;52.192;20.900;2023-04-03T01:55:59;5.82;;;3.00;;
22284;SDS011;11311;52.192;20.900;2023-04-03T01:58:30;4.78;;;2.90;;
22284;SDS011;11311;52.192;20.900;2023-04-03T02:00:59;5.95;;;3.10;;
22284;SDS011;11311;52.192;20.900;2023-04-03T02:03:29;4.68;;;2.63;;
22284;SDS011;11311;52.192;20.900;2023-04-03T02:06:00;4.18;;;2.58;;
22284;SDS011;11311;52.192;20.900;2023-04-03T02:08:29;5.18;;;2.60;;
22284;SDS011;11311;52.192;20.900;2023-04-03T02:10:59;4.00;;;2.47;;
22284;SDS011;11311;52.192;20.900;2023-04-03T02:13:27;3.33;;;2.38;;
22284;SDS011;11311;52.192;20.900;2023-04-03T02:15:56;3.30;;;2.50;;
22284;SDS011;11311;52.192;20.900;2023-04-03T02:18:26;3.15;;;2.25;;
22284;SDS011;11311;52.192;20.900;2023-04-03T02:20:55;6.65;;;2.55;;
22284;SDS011;11311;52.192;20.900;2023-04-03T02:23:25;3.92;;;2.38;;
22284;SDS011;11311;52.192;20.900;2023-04-03T02:26:01;7.57;;;3.72;;
22284;SDS011;11311;52.192;20.900;2023-04-03T02:28:31;3.50;;;2.33;;
22284;SDS011;11311;52.192;20.900;2023-04-03T02:31:01;4.18;;;2.70;;
22284;SDS011;11311;52.192;20.900;2023-04-03T02:33:31;4.25;;;2.10;;
22284;SDS011;11311;52.192;20.900;2023-04-03T02:36:00;4.30;;;2.28;;
22284;SDS011;11311;52.192;20.900;2023-04-03T02:38:31;4.07;;;2.72;;
22284;SDS011;11311;52.192;20.900;2023-04-03T02:41:00;3.97;;;2.65;;
22284;SDS011;11311;52.192;20.900;2023-04-03T02:45:59;4.03;;;2.10;;
22284;SDS011;11311;52.192;20.900;2023-04-03T02:48:28;4.88;;;2.58;;
22284;SDS011;11311;52.192;20.900;2023-04-03T02:50:57;3.83;;;2.20;;
22284;SDS011;11311;52.192;20.900;2023-04-03T02:53:26;7.80;;;2.42;;
22284;SDS011;11311;52.192;20.900;2023-04-03T02:55:57;4.82;;;2.80;;
22284;SDS011;11311;52.192;20.900;2023-04-03T02:58:25;5.53;;;3.10;;
22284;SDS011;11311;52.192;20.900;2023-04-03T03:00:57;6.78;;;3.53;;
22284;SDS011;11311;52.192;20.900;2023-04-03T03:03:26;5.30;;;2.75;;
22284;SDS011;11311;52.192;20.900;2023-04-03T03:06:04;2.85;;;2.50;;
22284;SDS011;11311;52.192;20.900;2023-04-03T03:08:34;3.57;;;2.70;;
22284;SDS011;11311;52.192;20.900;2023-04-03T03:11:05;4.60;;;3.20;;
22284;SDS011;11311;52.192;20.900;2023-04-03T03:16:02;2.60;;;2.40;;
22284;SDS011;11311;52.192;20.900;2023-04-03T03:18:32;4.78;;;2.33;;
22284;SDS011;11311;52.192;20.900;2023-04-03T03:21:02;9.25;;;3.05;;
22284;SDS011;11311;52.192;20.900;2023-04-03T03:26:01;3.85;;;2.92;;
22284;SDS011;11311;52.192;20.900;2023-04-03T03:28:34;3.92;;;2.53;;
22284;SDS011;11311;52.192;20.900;2023-04-03T03:31:05;5.35;;;2.65;;
22284;SDS011;11311;52.192;20.900;2023-04-03T03:33:37;4.38;;;2.85;;
22284;SDS011;11311;52.192;20.900;2023-04-03T03:36:06;7.72;;;2.80;;
22284;SDS011;11311;52.192;20.900;2023-04-03T03:38:36;5.30;;;2.78;;
22284;SDS011;11311;52.192;20.900;2023-04-03T03:41:05;4.90;;;2.90;;
22284;SDS011;11311;52.192;20.900;2023-04-03T03:43:36;4.47;;;3.10;;
22284;SDS011;11311;52.192;20.900;2023-04-03T03:46:06;7.22;;;2.78;;
22284;SDS011;11311;52.192;20.900;2023-04-03T03:48:35;4.10;;;2.75;;
22284;SDS011;11311;52.192;20.900;2023-04-03T03:51:04;2.83;;;2.25;;
22284;SDS011;11311;52.192;20.900;2023-04-03T03:53:36;4.22;;;2.83;;
22284;SDS011;11311;52.192;20.900;2023-04-03T03:56:08;2.53;;;2.30;;
22284;SDS011;11311;52.192;20.900;2023-04-03T03:58:40;6.40;;;2.97;;
22284;SDS011;11311;52.192;20.900;2023-04-03T04:01:09;5.07;;;3.70;;
22284;SDS011;11311;52.192;20.900;2023-04-03T04:03:42;10.15;;;2.85;;
22284;SDS011;11311;52.192;20.900;2023-04-03T04:06:16;4.85;;;2.83;;
22284;SDS011;11311;52.192;20.900;2023-04-03T04:08:45;3.67;;;2.75;;
22284;SDS011;11311;52.192;20.900;2023-04-03T04:11:14;6.33;;;2.70;;
22284;SDS011;11311;52.192;20.900;2023-04-03T04:13:46;7.05;;;2.53;;
22284;SDS011;11311;52.192;20.900;2023-04-03T04:16:17;5.25;;;2.63;;
22284;SDS011;11311;52.192;20.900;2023-04-03T04:18:46;7.82;;;3.33;;
22284;SDS011;11311;52.192;20.900;2023-04-03T04:21:15;4.30;;;2.63;;
22284;SDS011;11311;52.192;20.900;2023-04-03T04:23:45;8.55;;;2.95;;
22284;SDS011;11311;52.192;20.900;2023-04-03T04:26:14;9.40;;;2.50;;
22284;SDS011;11311;52.192;20.900;2023-04-03T04:28:43;7.10;;;2.67;;
22284;SDS011;11311;52.192;20.900;2023-04-03T04:31:14;6.37;;;2.93;;
22284;SDS011;11311;52.192;20.900;2023-04-03T04:33:43;4.43;;;2.67;;
22284;SDS011;11311;52.192;20.900;2023-04-03T04:36:14;3.20;;;2.70;;
22284;SDS011;11311;52.192;20.900;2023-04-03T04:38:45;5.28;;;3.03;;
22284;SDS011;11311;52.192;20.900;2023-04-03T04:41:15;7.18;;;2.30;;
22284;SDS011;11311;52.192;20.900;2023-04-03T04:43:44;8.95;;;3.22;;
22284;SDS011;11311;52.192;20.900;2023-04-03T04:46:15;9.48;;;2.97;;
22284;SDS011;11311;52.192;20.900;2023-04-03T04:48:49;6.10;;;2.67;;
22284;SDS011;11311;52.192;20.900;2023-04-03T04:51:20;7.72;;;2.53;;
22284;SDS011;11311;52.192;20.900;2023-04-03T04:53:49;6.80;;;3.30;;
22284;SDS011;11311;52.192;20.900;2023-04-03T04:56:22;5.78;;;3.08;;
22284;SDS011;11311;52.192;20.900;2023-04-03T04:58:52;6.00;;;3.30;;
22284;SDS011;11311;52.192;20.900;2023-04-03T05:01:24;11.27;;;4.25;;
22284;SDS011;11311;52.192;20.900;2023-04-03T05:04:07;7.00;;;3.17;;
22284;SDS011;11311;52.192;20.900;2023-04-03T05:06:38;6.25;;;3.15;;
22284;SDS011;11311;52.192;20.900;2023-04-03T05:09:11;9.05;;;3.08;;
22284;SDS011;11311;52.192;20.900;2023-04-03T05:11:42;6.05;;;3.08;;
22284;SDS011;11311;52.192;20.900;2023-04-03T05:14:14;6.78;;;3.00;;
22284;SDS011;11311;52.192;20.900;2023-04-03T05:16:45;10.02;;;3.25;;
22284;SDS011;11311;52.192;20.900;2023-04-03T05:19:18;3.40;;;2.80;;
22284;SDS011;11311;52.192;20.900;2023-04-03T05:21:47;5.13;;;2.58;;
22284;SDS011;11311;52.192;20.900;2023-04-03T05:24:16;6.13;;;3.13;;
22284;SDS011;11311;52.192;20.900;2023-04-03T05:26:45;9.52;;;2.65;;
22284;SDS011;11311;52.192;20.900;2023-04-03T05:29:15;3.67;;;3.28;;
22284;SDS011;11311;52.192;20.900;2023-04-03T05:31:46;7.65;;;3.00;;
22284;SDS011;11311;52.192;20.900;2023-04-03T05:34:18;3.08;;;2.67;;
22284;SDS011;11311;52.192;20.900;2023-04-03T05:36:49;4.05;;;2.70;;
22284;SDS011;11311;52.192;20.900;2023-04-03T05:39:19;4.95;;;3.10;;
22284;SDS011;11311;52.192;20.900;2023-04-03T05:41:48;8.93;;;2.88;;
22284;SDS011;11311;52.192;20.900;2023-04-03T05:44:17;3.92;;;2.65;;
22284;SDS011;11311;52.192;20.900;2023-04-03T05:46:48;5.05;;;2.80;;
22284;SDS011;11311;52.192;20.900;2023-04-03T05:49:19;7.90;;;3.17;;
22284;SDS011;11311;52.192;20.900;2023-04-03T05:51:48;5.80;;;2.47;;
22284;SDS011;11311;52.192;20.900;2023-04-03T05:54:23;3.50;;;2.97;;
22284;SDS011;11311;52.192;20.900;2023-04-03T05:57:00;3.47;;;2.50;;
22284;SDS011;11311;52.192;20.900;2023-04-03T05:59:29;7.75;;;2.80;;
22284;SDS011;11311;52.192;20.900;2023-04-03T06:02:01;12.23;;;3.45;;
22284;SDS011;11311;52.192;20.900;2023-04-03T06:04:29;6.10;;;2.85;;
22284;SDS011;11311;52.192;20.900;2023-04-03T06:06:59;4.68;;;2.80;;
22284;SDS011;11311;52.192;20.900;2023-04-03T06:09:28;6.05;;;2.50;;
22284;SDS011;11311;52.192;20.900;2023-04-03T06:14:29;4.43;;;2.60;;
22284;SDS011;11311;52.192;20.900;2023-04-03T06:16:58;3.28;;;2.08;;
22284;SDS011;11311;52.192;20.900;2023-04-03T06:19:30;4.03;;;2.72;;
22284;SDS011;11311;52.192;20.900;2023-04-03T06:21:59;6.22;;;2.92;;
22284;SDS011;11311;52.192;20.900;2023-04-03T06:24:29;5.75;;;2.63;;
22284;SDS011;11311;52.192;20.900;2023-04-03T06:26:58;5.18;;;2.95;;
22284;SDS011;11311;52.192;20.900;2023-04-03T06:29:27;2.60;;;2.20;;
22284;SDS011;11311;52.192;20.900;2023-04-03T06:31:56;10.55;;;2.83;;
22284;SDS011;11311;52.192;20.900;2023-04-03T06:34:25;8.02;;;2.80;;
22284;SDS011;11311;52.192;20.900;2023-04-03T06:36:56;7.27;;;3.37;;
22284;SDS011;11311;52.192;20.900;2023-04-03T06:41:54;7.72;;;3.20;;
22284;SDS011;11311;52.192;20.900;2023-04-03T06:44:34;5.97;;;2.75;;
22284;SDS011;11311;52.192;20.900;2023-04-03T06:47:03;4.93;;;2.90;;
22284;SDS011;11311;52.192;20.900;2023-04-03T06:49:32;2.50;;;2.30;;
22284;SDS011;11311;52.192;20.900;2023-04-03T06:52:02;6.25;;;2.70;;
22284;SDS011;11311;52.192;20.900;2023-04-03T06:54:32;4.70;;;2.78;;
22284;SDS011;11311;52.192;20.900;2023-04-03T06:57:01;6.40;;;3.42;;
22284;SDS011;11311;52.192;20.900;2023-04-03T06:59:30;4.28;;;2.58;;
22284;SDS011;11311;52.192;20.900;2023-04-03T07:01:59;5.78;;;2.90;;
22284;SDS011;11311;52.192;20.900;2023-04-03T07:04:28;6.68;;;3.35;;
22284;SDS011;11311;52.192;20.900;2023-04-03T07:06:57;6.43;;;2.63;;
22284;SDS011;11311;52.192;20.900;2023-04-03T07:09:28;4.00;;;2.75;;
22284;SDS011;11311;52.192;20.900;2023-04-03T07:11:57;3.53;;;2.50;;
22284;SDS011;11311;52.192;20.900;2023-04-03T07:14:26;5.03;;;2.40;;
22284;SDS011;11311;52.192;20.900;2023-04-03T07:16:55;8.18;;;2.63;;
22284;SDS011;11311;52.192;20.900;2023-04-03T07:19:23;4.05;;;2.70;;
22284;SDS011;11311;52.192;20.900;2023-04-03T07:21:55;3.38;;;2.20;;
22284;SDS011;11311;52.192;20.900;2023-04-03T07:24:23;4.88;;;2.00;;
22284;SDS011;11311;52.192;20.900;2023-04-03T07:26:54;6.55;;;2.42;;
22284;SDS011;11311;52.192;20.900;2023-04-03T07:31:51;5.18;;;2.00;;
22284;SDS011;11311;52.192;20.900;2023-04-03T07:34:20;7.82;;;2.53;;
22284;SDS011;11311;52.192;20.900;2023-04-03T07:36:49;6.70;;;2.78;;
22284;SDS011;11311;52.192;20.900;2023-04-03T07:39:18;3.22;;;1.90;;
22284;SDS011;11311;52.192;20.900;2023-04-03T07:41:47;4.60;;;1.80;;
22284;SDS011;11311;52.192;20.900;2023-04-03T07:44:20;2.85;;;1.92;;
22284;SDS011;11311;52.192;20.900;2023-04-03T07:46:49;3.92;;;2.10;;
22284;SDS011;11311;52.192;20.900;2023-04-03T07:49:18;7.78;;;1.70;;
22284;SDS011;11311;52.192;20.900;2023-04-03T07:51:53;4.50;;;2.42;;
22284;SDS011;11311;52.192;20.900;2023-04-03T07:54:22;5.75;;;2.50;;
22284;SDS011;11311;52.192;20.900;2023-04-03T07:56:51;4.05;;;1.80;;
22284;SDS011;11311;52.192;20.900;2023-04-03T07:59:21;2.97;;;1.65;;
22284;SDS011;11311;52.192;20.900;2023-04-03T08:01:50;3.03;;;1.52;;
22284;SDS011;11311;52.192;20.900;2023-04-03T08:04:19;5.78;;;2.10;;
22284;SDS011;11311;52.192;20.900;2023-04-03T08:06:49;5.47;;;2.40;;
22284;SDS011;11311;52.192;20.900;2023-04-03T08:09:18;5.90;;;2.40;;
22284;SDS011;11311;52.192;20.900;2023-04-03T08:11:47;3.10;;;1.77;;
22284;SDS011;11311;52.192;20.900;2023-04-03T08:14:21;4.85;;;1.65;;
22284;SDS011;11311;52.192;20.900;2023-04-03T08:16:50;4.65;;;2.17;;
22284;SDS011;11311;52.192;20.900;2023-04-03T08:19:19;2.92;;;1.63;;
22284;SDS011;11311;52.192;20.900;2023-04-03T08:21:53;5.35;;;1.50;;
22284;SDS011;11311;52.192;20.900;2023-04-03T08:24:23;5.82;;;1.60;;
22284;SDS011;11311;52.192;20.900;2023-04-03T08:26:52;3.85;;;1.55;;
22284;SDS011;11311;52.192;20.900;2023-04-03T08:29:23;3.33;;;1.63;;
22284;SDS011;11311;52.192;20.900;2023-04-03T08:31:52;3.67;;;1.55;;
22284;SDS011;11311;52.192;20.900;2023-04-03T08:34:21;3.47;;;1.55;;
22284;SDS011;11311;52.192;20.900;2023-04-03T08:36:50;5.23;;;1.93;;
22284;SDS011;11311;52.192;20.900;2023-04-03T08:39:19;2.47;;;1.10;;
22284;SDS011;11311;52.192;20.900;2023-04-03T08:41:48;3.05;;;1.40;;
22284;SDS011;11311;52.192;20.900;2023-04-03T08:44:19;3.17;;;1.55;;
22284;SDS011;11311;52.192;20.900;2023-04-03T08:46:58;5.68;;;1.60;;
22284;SDS011;11311;52.192;20.900;2023-04-03T08:49:37;2.53;;;1.65;;
22284;SDS011;11311;52.192;20.900;2023-04-03T08:52:15;2.88;;;1.85;;
22284;SDS011;11311;52.192;20.900;2023-04-03T08:54:48;2.70;;;1.48;;
22284;SDS011;11311;52.192;20.900;2023-04-03T08:57:20;2.40;;;1.65;;
22284;SDS011;11311;52.192;20.900;2023-04-03T08:59:56;2.20;;;1.20;;
22284;SDS011;11311;52.192;20.900;2023-04-03T09:02:27;2.42;;;1.55;;
22284;SDS011;11311;52.192;20.900;2023-04-03T09:04:57;3.17;;;1.60;;
22284;SDS011;11311;52.192;20.900;2023-04-03T09:07:30;2.20;;;1.25;;
22284;SDS011;11311;52.192;20.900;2023-04-03T09:10:02;2.22;;;1.35;;
22284;SDS011;11311;52.192;20.900;2023-04-03T09:15:05;1.92;;;1.35;;
22284;SDS011;11311;52.192;20.900;2023-04-03T09:17:41;5.65;;;1.45;;
22284;SDS011;11311;52.192;20.900;2023-04-03T09:20:16;2.10;;;1.20;;
22284;SDS011;11311;52.192;20.900;2023-04-03T09:22:50;4.05;;;1.67;;
22284;SDS011;11311;52.192;20.900;2023-04-03T09:25:22;1.85;;;1.48;;
22284;SDS011;11311;52.192;20.900;2023-04-03T09:27:52;1.65;;;1.48;;
22284;SDS011;11311;52.192;20.900;2023-04-03T09:30:24;3.20;;;1.50;;
22284;SDS011;11311;52.192;20.900;2023-04-03T09:32:54;6.18;;;1.13;;
22284;SDS011;11311;52.192;20.900;2023-04-03T09:35:25;2.60;;;1.23;;
22284;SDS011;11311;52.192;20.900;2023-04-03T09:38:15;2.65;;;1.63;;
22284;SDS011;11311;52.192;20.900;2023-04-03T09:40:45;2.30;;;1.30;;
22284;SDS011;11311;52.192;20.900;2023-04-03T09:43:24;3.38;;;2.00;;
22284;SDS011;11311;52.192;20.900;2023-04-03T09:45:56;2.90;;;1.58;;
22284;SDS011;11311;52.192;20.900;2023-04-03T09:51:03;4.25;;;1.50;;
22284;SDS011;11311;52.192;20.900;2023-04-03T09:53:33;2.40;;;1.33;;
22284;SDS011;11311;52.192;20.900;2023-04-03T09:56:04;2.60;;;1.55;;
22284;SDS011;11311;52.192;20.900;2023-04-03T09:58:48;1.65;;;1.17;;
22284;SDS011;11311;52.192;20.900;2023-04-03T10:01:25;2.70;;;1.45;;
22284;SDS011;11311;52.192;20.900;2023-04-03T10:06:44;2.08;;;1.60;;
22284;SDS011;11311;52.192;20.900;2023-04-03T10:09:16;1.42;;;1.23;;
22284;SDS011;11311;52.192;20.900;2023-04-03T10:12:03;1.98;;;1.27;;
22284;SDS011;11311;52.192;20.900;2023-04-03T10:14:34;2.65;;;1.13;;
22284;SDS011;11311;52.192;20.900;2023-04-03T10:19:41;2.25;;;1.23;;
22284;SDS011;11311;52.192;20.900;2023-04-03T10:22:18;2.63;;;1.35;;
22284;SDS011;11311;52.192;20.900;2023-04-03T10:24:52;1.58;;;1.10;;
22284;SDS011;11311;52.192;20.900;2023-04-03T10:27:31;2.08;;;1.38;;
22284;SDS011;11311;52.192;20.900;2023-04-03T10:30:08;4.45;;;1.38;;
22284;SDS011;11311;52.192;20.900;2023-04-03T10:32:52;2.65;;;1.50;;
22284;SDS011;11311;52.192;20.900;2023-04-03T10:35:31;4.95;;;1.77;;
22284;SDS011;11311;52.192;20.900;2023-04-03T10:38:12;2.83;;;1.70;;
22284;SDS011;11311;52.192;20.900;2023-04-03T10:40:46;3.15;;;1.40;;
22284;SDS011;11311;52.192;20.900;2023-04-03T10:43:22;2.55;;;1.33;;
22284;SDS011;11311;52.192;20.900;2023-04-03T10:45:57;2.47;;;1.20;;
22284;SDS011;11311;52.192;20.900;2023-04-03T10:48:37;2.28;;;1.50;;
22284;SDS011;11311;52.192;20.900;2023-04-03T10:51:15;3.08;;;1.27;;
22284;SDS011;11311;52.192;20.900;2023-04-03T10:53:51;2.78;;;1.40;;
22284;SDS011;11311;52.192;20.900;2023-04-03T10:56:25;2.83;;;1.50;;
22284;SDS011;11311;52.192;20.900;2023-04-03T10:59:00;4.28;;;1.40;;
22284;SDS011;11311;52.192;20.900;2023-04-03T11:01:37;2.35;;;1.25;;
22284;SDS011;11311;52.192;20.900;2023-04-03T11:04:10;3.25;;;1.63;;
22284;SDS011;11311;52.192;20.900;2023-04-03T11:06:41;1.40;;;1.08;;
22284;SDS011;11311;52.192;20.900;2023-04-03T11:09:16;2.10;;;1.42;;
22284;SDS011;11311;52.192;20.900;2023-04-03T11:11:49;2.20;;;1.40;;
22284;SDS011;11311;52.192;20.900;2023-04-03T11:14:22;3.42;;;1.73;;
22284;SDS011;11311;52.192;20.900;2023-04-03T11:16:59;1.48;;;1.38;;
22284;SDS011;11311;52.192;20.900;2023-04-03T11:19:35;2.40;;;1.30;;
22284;SDS011;11311;52.192;20.900;2023-04-03T11:22:09;2.28;;;1.30;;
22284;SDS011;11311;52.192;20.900;2023-04-03T11:24:42;1.65;;;1.30;;
22284;SDS011;11311;52.192;20.900;2023-04-03T11:27:17;3.15;;;1.55;;
22284;SDS011;11311;52.192;20.900;2023-04-03T11:29:49;2.55;;;1.02;;
22284;SDS011;11311;52.192;20.900;2023-04-03T11:32:28;3.60;;;1.53;;
22284;SDS011;11311;52.192;20.900;2023-04-03T11:35:08;1.73;;;1.17;;
22284;SDS011;11311;52.192;20.900;2023-04-03T11:37:38;1.70;;;1.20;;
22284;SDS011;11311;52.192;20.900;2023-04-03T11:40:08;2.17;;;1.20;;
22284;SDS011;11311;52.192;20.900;2023-04-03T11:42:49;1.40;;;1.05;;
22284;SDS011;11311;52.192;20.900;2023-04-03T11:45:32;1.35;;;1.25;;
22284;SDS011;11311;52.192;20.900;2023-04-03T11:48:41;1.92;;;1.20;;
22284;SDS011;11311;52.192;20.900;2023-04-03T12:03:31;3.13;;;1.70;;
22284;SDS011;11311;52.192;20.900;2023-04-03T12:09:33;2.03;;;1.38;;
22284;SDS011;11311;52.192;20.900;2023-04-03T12:15:18;2.72;;;1.52;;
22284;SDS011;11311;52.192;20.900;2023-04-03T12:17:51;3.65;;;1.55;;
22284;SDS011;11311;52.192;20.900;2023-04-03T12:23:24;2.33;;;1.25;;
22284;SDS011;11311;52.192;20.900;2023-04-03T12:26:00;1.77;;;1.00;;
22284;SDS011;11311;52.192;20.900;2023-04-03T12:28:37;1.92;;;1.60;;
22284;SDS011;11311;52.192;20.900;2023-04-03T12:31:08;2.38;;;1.38;;
22284;SDS011;11311;52.192;20.900;2023-04-03T12:33:44;2.30;;;1.33;;
22284;SDS011;11311;52.192;20.900;2023-04-03T12:36:26;4.80;;;1.70;;
22284;SDS011;11311;52.192;20.900;2023-04-03T12:39:04;2.47;;;1.35;;
22284;SDS011;11311;52.192;20.900;2023-04-03T12:41:42;1.90;;;1.10;;
22284;SDS011;11311;52.192;20.900;2023-04-03T12:44:18;3.83;;;1.50;;
22284;SDS011;11311;52.192;20.900;2023-04-03T12:46:59;3.63;;;1.60;;
22284;SDS011;11311;52.192;20.900;2023-04-03T12:49:35;2.00;;;1.05;;
22284;SDS011;11311;52.192;20.900;2023-04-03T12:52:06;4.93;;;1.70;;
22284;SDS011;11311;52.192;20.900;2023-04-03T12:54:47;1.67;;;1.23;;
22284;SDS011;11311;52.192;20.900;2023-04-03T12:57:18;3.93;;;1.73;;
22284;SDS011;11311;52.192;20.900;2023-04-03T12:59:48;1.67;;;1.40;;
22284;SDS011;11311;52.192;20.900;2023-04-03T13:02:20;3.15;;;1.40;;
22284;SDS011;11311;52.192;20.900;2023-04-03T13:04:50;3.95;;;1.40;;
22284;SDS011;11311;52.192;20.900;2023-04-03T13:07:21;2.25;;;1.20;;
22284;SDS011;11311;52.192;20.900;2023-04-03T13:09:56;1.80;;;1.35;;
22284;SDS011;11311;52.192;20.900;2023-04-03T13:12:31;1.50;;;1.20;;
22284;SDS011;11311;52.192;20.900;2023-04-03T13:15:01;1.60;;;1.00;;
22284;SDS011;11311;52.192;20.900;2023-04-03T13:17:40;3.75;;;1.13;;
22284;SDS011;11311;52.192;20.900;2023-04-03T13:20:10;4.63;;;1.58;;
22284;SDS011;11311;52.192;20.900;2023-04-03T13:22:46;1.85;;;1.45;;
22284;SDS011;11311;52.192;20.900;2023-04-03T13:25:17;1.92;;;1.45;;
22284;SDS011;11311;52.192;20.900;2023-04-03T13:30:25;2.92;;;1.40;;
22284;SDS011;11311;52.192;20.900;2023-04-03T13:32:56;3.15;;;1.70;;
22284;SDS011;11311;52.192;20.900;2023-04-03T13:35:27;3.40;;;1.85;;
22284;SDS011;11311;52.192;20.900;2023-04-03T13:38:00;2.33;;;1.50;;
22284;SDS011;11311;52.192;20.900;2023-04-03T13:40:30;2.25;;;1.50;;
22284;SDS011;11311;52.192;20.900;2023-04-03T13:43:19;5.10;;;1.67;;
22284;SDS011;11311;52.192;20.900;2023-04-03T13:45:56;1.38;;;1.08;;
22284;SDS011;11311;52.192;20.900;2023-04-03T13:48:37;2.83;;;1.63;;
22284;SDS011;11311;52.192;20.900;2023-04-03T13:51:16;1.50;;;1.33;;
22284;SDS011;11311;52.192;20.900;2023-04-03T13:53:48;1.83;;;1.63;;
22284;SDS011;11311;52.192;20.900;2023-04-03T13:56:24;1.60;;;1.40;;
22284;SDS011;11311;52.192;20.900;2023-04-03T13:58:57;1.20;;;1.10;;
22284;SDS011;11311;52.192;20.900;2023-04-03T14:01:40;3.92;;;1.35;;
22284;SDS011;11311;52.192;20.900;2023-04-03T14:04:13;5.22;;;2.10;;
22284;SDS011;11311;52.192;20.900;2023-04-03T14:06:44;4.03;;;1.92;;
22284;SDS011;11311;52.192;20.900;2023-04-03T14:09:14;2.50;;;1.50;;
22284;SDS011;11311;52.192;20.900;2023-04-03T14:11:44;5.78;;;1.70;;
22284;SDS011;11311;52.192;20.900;2023-04-03T14:14:17;1.60;;;1.42;;
22284;SDS011;11311;52.192;20.900;2023-04-03T14:16:49;5.25;;;1.40;;
22284;SDS011;11311;52.192;20.900;2023-04-03T14:19:21;2.15;;;1.25;;
22284;SDS011;11311;52.192;20.900;2023-04-03T14:21:52;1.45;;;1.30;;
22284;SDS011;11311;52.192;20.900;2023-04-03T14:26:52;4.25;;;1.80;;
22284;SDS011;11311;52.192;20.900;2023-04-03T14:29:23;4.10;;;1.27;;
22284;SDS011;11311;52.192;20.900;2023-04-03T14:31:52;2.28;;;1.65;;
22284;SDS011;11311;52.192;20.900;2023-04-03T14:34:40;2.83;;;1.42;;
22284;SDS011;11311;52.192;20.900;2023-04-03T14:37:10;2.47;;;1.52;;
22284;SDS011;11311;52.192;20.900;2023-04-03T14:39:41;4.65;;;1.73;;
22284;SDS011;11311;52.192;20.900;2023-04-03T14:42:12;1.70;;;1.60;;
22284;SDS011;11311;52.192;20.900;2023-04-03T14:44:43;5.18;;;1.92;;
22284;SDS011;11311;52.192;20.900;2023-04-03T14:47:13;3.00;;;1.90;;
22284;SDS011;11311;52.192;20.900;2023-04-03T14:49:56;3.78;;;1.80;;
22284;SDS011;11311;52.192;20.900;2023-04-03T14:52:26;4.97;;;2.60;;
22284;SDS011;11311;52.192;20.900;2023-04-03T14:54:57;2.05;;;1.77;;
22284;SDS011;11311;52.192;20.900;2023-04-03T14:57:27;4.18;;;1.90;;
22284;SDS011;11311;52.192;20.900;2023-04-03T14:59:59;3.03;;;1.70;;
22284;SDS011;11311;52.192;20.900;2023-04-03T15:02:31;3.72;;;1.75;;
22284;SDS011;11311;52.192;20.900;2023-04-03T15:05:03;6.43;;;2.33;;
22284;SDS011;11311;52.192;20.900;2023-04-03T15:07:32;4.40;;;1.90;;
22284;SDS011;11311;52.192;20.900;2023-04-03T15:10:09;5.85;;;2.58;;
22284;SDS011;11311;52.192;20.900;2023-04-03T15:15:15;2.60;;;2.15;;
22284;SDS011;11311;52.192;20.900;2023-04-03T15:17:47;2.35;;;2.00;;
22284;SDS011;11311;52.192;20.900;2023-04-03T15:20:22;4.15;;;1.98;;
22284;SDS011;11311;52.192;20.900;2023-04-03T15:25:20;3.17;;;2.40;;
22284;SDS011;11311;52.192;20.900;2023-04-03T15:27:49;3.20;;;2.17;;
22284;SDS011;11311;52.192;20.900;2023-04-03T15:30:20;4.95;;;2.58;;
22284;SDS011;11311;52.192;20.900;2023-04-03T15:32:49;2.67;;;1.63;;
22284;SDS011;11311;52.192;20.900;2023-04-03T15:35:18;6.75;;;1.95;;
22284;SDS011;11311;52.192;20.900;2023-04-03T15:37:47;4.95;;;2.13;;
22284;SDS011;11311;52.192;20.900;2023-04-03T15:40:16;4.73;;;2.53;;
22284;SDS011;11311;52.192;20.900;2023-04-03T15:42:45;3.00;;;2.50;;
22284;SDS011;11311;52.192;20.900;2023-04-03T15:45:14;2.13;;;1.90;;
22284;SDS011;11311;52.192;20.900;2023-04-03T15:47:44;5.75;;;2.10;;
22284;SDS011;11311;52.192;20.900;2023-04-03T15:52:42;5.53;;;3.33;;
22284;SDS011;11311;52.192;20.900;2023-04-03T15:55:11;4.10;;;2.35;;
22284;SDS011;11311;52.192;20.900;2023-04-03T15:57:40;4.88;;;2.00;;
22284;SDS011;11311;52.192;20.900;2023-04-03T16:00:10;4.97;;;2.03;;
22284;SDS011;11311;52.192;20.900;2023-04-03T16:02:40;6.18;;;2.03;;
22284;SDS011;11311;52.192;20.900;2023-04-03T16:05:10;3.17;;;1.95;;